sensor_id;sensor_type;location;lat;lon;timestamp;pressure;altitude;pressure_sealevel;temperature;humidity
22550;BME280;11441;57.164;-2.120;2022-12-20T00:03:09;98922.88;;;6.57;100.00
22550;BME280;11441;57.164;-2.120;2022-12-20T00:05:39;98926.69;;;6.49;100.00
22550;BME280;11441;57.164;-2.120;2022-12-20T00:08:07;98922.00;;;6.50;100.00
22550;BME280;11441;57.164;-2.120;2022-12-20T00:10:38;98931.38;;;6.49;100.00
22550;BME280;11441;57.164;-2.120;2022-12-20T00:13:07;98925.91;;;6.49;100.00
22550;BME280;11441;57.164;-2.120;2022-12-20T00:15:35;98926.22;;;6.44;100.00
22550;BME280;11441;57.164;-2.120;2022-12-20T00:18:03;98925.16;;;6.25;100.00
22550;BME280;11441;57.164;-2.120;2022-12-20T00:20:30;98920.88;;;6.24;100.00
22550;BME280;11441;57.164;-2.120;2022-12-20T00:22:56;98925.38;;;6.13;100.00
22550;BME280;11441;57.164;-2.120;2022-12-20T00:25:23;98907.75;;;5.83;100.00
22550;BME280;11441;57.164;-2.120;2022-12-20T00:27:50;98907.59;;;5.96;100.00
22550;BME280;11441;57.164;-2.120;2022-12-20T00:30:17;98902.13;;;5.96;100.00
22550;BME280;11441;57.164;-2.120;2022-12-20T00:32:44;98894.50;;;5.85;100.00
22550;BME280;11441;57.164;-2.120;2022-12-20T00:35:12;98916.94;;;5.72;100.00
22550;BME280;11441;57.164;-2.120;2022-12-20T00:37:39;98905.19;;;5.71;100.00
22550;BME280;11441;57.164;-2.120;2022-12-20T00:40:06;98909.94;;;5.74;100.00
22550;BME280;11441;57.164;-2.120;2022-12-20T00:42:33;98908.53;;;5.84;100.00
22550;BME280;11441;57.164;-2.120;2022-12-20T00:45:00;98908.38;;;5.73;100.00
22550;BME280;11441;57.164;-2.120;2022-12-20T00:47:27;98899.09;;;5.55;100.00
22550;BME280;11441;57.164;-2.120;2022-12-20T00:50:11;98928.31;;;5.77;100.00
22550;BME280;11441;57.164;-2.120;2022-12-20T00:52:39;98930.53;;;5.68;100.00
22550;BME280;11441;57.164;-2.120;2022-12-20T00:55:06;98920.13;;;5.77;100.00
22550;BME280;11441;57.164;-2.120;2022-12-20T00:57:33;98914.38;;;5.59;100.00
22550;BME280;11441;57.164;-2.120;2022-12-20T01:00:00;98911.16;;;5.54;100.00
22550;BME280;11441;57.164;-2.120;2022-12-20T01:02:26;98918.19;;;5.55;100.00
22550;BME280;11441;57.164;-2.120;2022-12-20T01:04:54;98906.44;;;5.51;100.00
22550;BME280;11441;57.164;-2.120;2022-12-20T01:07:20;98916.25;;;5.55;100.00
22550;BME280;11441;57.164;-2.120;2022-12-20T01:09:50;98900.69;;;5.56;100.00
22550;BME280;11441;57.164;-2.120;2022-12-20T01:12:17;98901.88;;;5.58;100.00
22550;BME280;11441;57.164;-2.120;2022-12-20T01:14:44;98916.38;;;5.62;100.00
22550;BME280;11441;57.164;-2.120;2022-12-20T01:17:11;98921.34;;;5.57;100.00
22550;BME280;11441;57.164;-2.120;2022-12-20T01:19:38;98911.97;;;5.54;100.00
22550;BME280;11441;57.164;-2.120;2022-12-20T01:22:06;98913.16;;;5.57;100.00
22550;BME280;11441;57.164;-2.120;2022-12-20T01:24:32;98920.56;;;5.33;100.00
22550;BME280;11441;57.164;-2.120;2022-12-20T01:26:59;98918.19;;;5.55;100.00
22550;BME280;11441;57.164;-2.120;2022-12-20T01:29:26;98921.09;;;5.42;100.00
22550;BME280;11441;57.164;-2.120;2022-12-20T01:31:53;98915.66;;;5.42;100.00
22550;BME280;11441;57.164;-2.120;2022-12-20T01:34:20;98927.84;;;5.48;100.00
22550;BME280;11441;57.164;-2.120;2022-12-20T01:36:47;98941.50;;;5.48;100.00
22550;BME280;11441;57.164;-2.120;2022-12-20T01:39:15;98936.84;;;5.49;100.00
22550;BME280;11441;57.164;-2.120;2022-12-20T01:41:44;98933.28;;;5.48;100.00
22550;BME280;11441;57.164;-2.120;2022-12-20T01:46:46;98940.00;;;5.51;100.00
22550;BME280;11441;57.164;-2.120;2022-12-20T01:49:20;98948.06;;;5.67;100.00
22550;BME280;11441;57.164;-2.120;2022-12-20T01:52:09;98939.91;;;5.71;100.00
22550;BME280;11441;57.164;-2.120;2022-12-20T01:54:41;98937.34;;;5.81;100.00
22550;BME280;11441;57.164;-2.120;2022-12-20T01:57:40;98941.44;;;5.68;100.00
22550;BME280;11441;57.164;-2.120;2022-12-20T02:00:09;98924.66;;;5.66;100.00
22550;BME280;11441;57.164;-2.120;2022-12-20T02:02:40;98937.13;;;5.67;100.00
22550;BME280;11441;57.164;-2.120;2022-12-20T02:05:09;98939.44;;;5.65;100.00
22550;BME280;11441;57.164;-2.120;2022-12-20T02:07:55;98933.97;;;5.65;100.00
22550;BME280;11441;57.164;-2.120;2022-12-20T02:10:28;98943.69;;;5.62;100.00
22550;BME280;11441;57.164;-2.120;2022-12-20T02:13:06;98933.63;;;5.66;100.00
22550;BME280;11441;57.164;-2.120;2022-12-20T02:15:54;98930.09;;;5.66;100.00
22550;BME280;11441;57.164;-2.120;2022-12-20T02:21:20;98934.41;;;5.67;100.00
22550;BME280;11441;57.164;-2.120;2022-12-20T02:29:21;98934.22;;;5.79;100.00
22550;BME280;11441;57.164;-2.120;2022-12-20T02:32:15;98942.09;;;5.84;100.00
22550;BME280;11441;57.164;-2.120;2022-12-20T02:34:45;98939.00;;;5.86;100.00
22550;BME280;11441;57.164;-2.120;2022-12-20T02:37:12;98942.00;;;6.00;100.00
22550;BME280;11441;57.164;-2.120;2022-12-20T02:39:41;98948.41;;;5.89;100.00
22550;BME280;11441;57.164;-2.120;2022-12-20T02:42:11;98944.59;;;5.93;100.00
22550;BME280;11441;57.164;-2.120;2022-12-20T02:44:50;98936.56;;;6.04;100.00
22550;BME280;11441;57.164;-2.120;2022-12-20T02:47:42;98929.34;;;5.92;100.00
22550;BME280;11441;57.164;-2.120;2022-12-20T02:50:11;98939.47;;;5.92;100.00
22550;BME280;11441;57.164;-2.120;2022-12-20T02:52:40;98930.44;;;5.88;100.00
22550;BME280;11441;57.164;-2.120;2022-12-20T02:55:08;98928.50;;;5.88;100.00
22550;BME280;11441;57.164;-2.120;2022-12-20T02:58:07;98920.25;;;5.84;100.00
22550;BME280;11441;57.164;-2.120;2022-12-20T03:00:55;98917.09;;;5.82;100.00
22550;BME280;11441;57.164;-2.120;2022-12-20T03:03:23;98924.94;;;5.84;100.00
22550;BME280;11441;57.164;-2.120;2022-12-20T03:05:53;98918.78;;;5.91;100.00
22550;BME280;11441;57.164;-2.120;2022-12-20T03:08:21;98907.63;;;5.76;100.00
22550;BME280;11441;57.164;-2.120;2022-12-20T03:10:51;98909.88;;;5.71;100.00
22550;BME280;11441;57.164;-2.120;2022-12-20T03:13:19;98911.81;;;5.70;100.00
22550;BME280;11441;57.164;-2.120;2022-12-20T03:15:53;98900.47;;;5.68;100.00
22550;BME280;11441;57.164;-2.120;2022-12-20T03:18:22;98912.78;;;5.81;100.00
22550;BME280;11441;57.164;-2.120;2022-12-20T03:20:48;98917.50;;;5.84;100.00
22550;BME280;11441;57.164;-2.120;2022-12-20T03:23:15;98921.06;;;5.89;100.00
22550;BME280;11441;57.164;-2.120;2022-12-20T03:25:42;98913.31;;;5.91;100.00
22550;BME280;11441;57.164;-2.120;2022-12-20T03:28:14;98916.78;;;5.88;100.00
22550;BME280;11441;57.164;-2.120;2022-12-20T03:30:41;98925.41;;;5.90;100.00
22550;BME280;11441;57.164;-2.120;2022-12-20T03:33:08;98914.09;;;5.91;100.00
22550;BME280;11441;57.164;-2.120;2022-12-20T03:35:36;98913.75;;;5.93;100.00
22550;BME280;11441;57.164;-2.120;2022-12-20T03:38:03;98907.09;;;5.94;100.00
22550;BME280;11441;57.164;-2.120;2022-12-20T03:40:30;98919.28;;;5.96;100.00
22550;BME280;11441;57.164;-2.120;2022-12-20T03:42:57;98912.34;;;5.79;100.00
22550;BME280;11441;57.164;-2.120;2022-12-20T03:45:24;98896.44;;;5.85;100.00
22550;BME280;11441;57.164;-2.120;2022-12-20T03:47:51;98901.84;;;5.81;100.00
22550;BME280;11441;57.164;-2.120;2022-12-20T03:50:18;98889.94;;;5.93;100.00
22550;BME280;11441;57.164;-2.120;2022-12-20T03:52:45;98896.13;;;5.90;100.00
22550;BME280;11441;57.164;-2.120;2022-12-20T03:55:31;98885.56;;;5.89;100.00
22550;BME280;11441;57.164;-2.120;2022-12-20T03:57:59;98880.66;;;5.98;100.00
22550;BME280;11441;57.164;-2.120;2022-12-20T04:00:30;98886.53;;;6.00;100.00
22550;BME280;11441;57.164;-2.120;2022-12-20T04:03:15;98889.84;;;6.13;100.00
22550;BME280;11441;57.164;-2.120;2022-12-20T04:05:43;98888.66;;;6.10;100.00
22550;BME280;11441;57.164;-2.120;2022-12-20T04:11:22;98854.47;;;5.97;100.00
22550;BME280;11441;57.164;-2.120;2022-12-20T04:14:04;98861.22;;;6.03;100.00
22550;BME280;11441;57.164;-2.120;2022-12-20T04:16:32;98855.59;;;5.92;100.00
22550;BME280;11441;57.164;-2.120;2022-12-20T04:19:00;98842.53;;;5.82;100.00
22550;BME280;11441;57.164;-2.120;2022-12-20T04:21:51;98858.91;;;6.05;100.00
22550;BME280;11441;57.164;-2.120;2022-12-20T04:24:41;98872.53;;;6.01;100.00
22550;BME280;11441;57.164;-2.120;2022-12-20T04:27:18;98872.06;;;5.96;100.00
22550;BME280;11441;57.164;-2.120;2022-12-20T04:29:45;98879.22;;;6.08;100.00
22550;BME280;11441;57.164;-2.120;2022-12-20T04:32:15;98875.72;;;6.07;100.00
22550;BME280;11441;57.164;-2.120;2022-12-20T04:35:00;98882.78;;;6.08;100.00
22550;BME280;11441;57.164;-2.120;2022-12-20T04:37:27;98888.59;;;6.07;100.00
22550;BME280;11441;57.164;-2.120;2022-12-20T04:39:56;98878.00;;;5.78;100.00
22550;BME280;11441;57.164;-2.120;2022-12-20T04:42:32;98886.78;;;5.91;100.00
22550;BME280;11441;57.164;-2.120;2022-12-20T04:45:18;98884.41;;;5.90;100.00
22550;BME280;11441;57.164;-2.120;2022-12-20T04:47:46;98882.03;;;5.88;100.00
22550;BME280;11441;57.164;-2.120;2022-12-20T04:50:16;98885.63;;;5.92;100.00
22550;BME280;11441;57.164;-2.120;2022-12-20T04:52:45;98869.41;;;5.80;100.00
22550;BME280;11441;57.164;-2.120;2022-12-20T04:55:38;98866.31;;;5.81;100.00
22550;BME280;11441;57.164;-2.120;2022-12-20T04:58:06;98871.00;;;5.81;100.00
22550;BME280;11441;57.164;-2.120;2022-12-20T05:00:36;98854.97;;;5.79;100.00
22550;BME280;11441;57.164;-2.120;2022-12-20T05:03:15;98855.72;;;5.76;100.00
22550;BME280;11441;57.164;-2.120;2022-12-20T05:05:42;98855.41;;;5.81;100.00
22550;BME280;11441;57.164;-2.120;2022-12-20T05:08:09;98852.25;;;5.79;100.00
22550;BME280;11441;57.164;-2.120;2022-12-20T05:10:37;98865.91;;;5.79;100.00
22550;BME280;11441;57.164;-2.120;2022-12-20T05:13:04;98863.44;;;5.71;100.00
22550;BME280;11441;57.164;-2.120;2022-12-20T05:15:54;98849.47;;;5.76;100.00
22550;BME280;11441;57.164;-2.120;2022-12-20T05:18:26;98853.84;;;5.80;100.00
22550;BME280;11441;57.164;-2.120;2022-12-20T05:20:59;98865.59;;;5.84;100.00
22550;BME280;11441;57.164;-2.120;2022-12-20T05:24:03;98864.47;;;5.85;100.00
22550;BME280;11441;57.164;-2.120;2022-12-20T05:27:02;98869.50;;;5.83;100.00
22550;BME280;11441;57.164;-2.120;2022-12-20T05:29:29;98876.28;;;5.93;100.00
22550;BME280;11441;57.164;-2.120;2022-12-20T05:31:56;98883.31;;;5.94;100.00
22550;BME280;11441;57.164;-2.120;2022-12-20T05:34:24;98876.00;;;5.75;100.00
22550;BME280;11441;57.164;-2.120;2022-12-20T05:36:53;98881.84;;;5.74;100.00
22550;BME280;11441;57.164;-2.120;2022-12-20T05:39:22;98883.34;;;5.71;100.00
22550;BME280;11441;57.164;-2.120;2022-12-20T05:41:52;98868.66;;;5.79;100.00
22550;BME280;11441;57.164;-2.120;2022-12-20T05:44:23;98875.28;;;5.78;100.00
22550;BME280;11441;57.164;-2.120;2022-12-20T05:46:54;98875.16;;;5.71;100.00
22550;BME280;11441;57.164;-2.120;2022-12-20T05:49:26;98866.16;;;5.71;100.00
22550;BME280;11441;57.164;-2.120;2022-12-20T05:51:54;98863.84;;;5.73;100.00
22550;BME280;11441;57.164;-2.120;2022-12-20T05:54:23;98866.06;;;5.63;100.00
22550;BME280;11441;57.164;-2.120;2022-12-20T05:57:11;98874.47;;;5.78;100.00
22550;BME280;11441;57.164;-2.120;2022-12-20T05:59:56;98881.94;;;5.81;100.00
22550;BME280;11441;57.164;-2.120;2022-12-20T06:02:24;98879.50;;;5.76;100.00
22550;BME280;11441;57.164;-2.120;2022-12-20T06:04:59;98889.66;;;5.75;100.00
22550;BME280;11441;57.164;-2.120;2022-12-20T06:07:26;98888.03;;;5.71;100.00
22550;BME280;11441;57.164;-2.120;2022-12-20T06:09:58;98878.38;;;5.77;100.00
22550;BME280;11441;57.164;-2.120;2022-12-20T06:12:38;98863.59;;;5.81;100.00
22550;BME280;11441;57.164;-2.120;2022-12-20T06:15:05;98867.44;;;5.77;100.00
22550;BME280;11441;57.164;-2.120;2022-12-20T06:17:32;98862.44;;;5.82;100.00
22550;BME280;11441;57.164;-2.120;2022-12-20T06:19:59;98867.81;;;5.75;100.00
22550;BME280;11441;57.164;-2.120;2022-12-20T06:22:26;98867.88;;;5.79;100.00
22550;BME280;11441;57.164;-2.120;2022-12-20T06:24:55;98869.81;;;5.78;100.00
22550;BME280;11441;57.164;-2.120;2022-12-20T06:27:26;98860.41;;;5.76;100.00
22550;BME280;11441;57.164;-2.120;2022-12-20T06:30:05;98861.16;;;5.76;100.00
22550;BME280;11441;57.164;-2.120;2022-12-20T06:32:44;98864.22;;;5.71;100.00
22550;BME280;11441;57.164;-2.120;2022-12-20T06:35:11;98860.34;;;5.72;100.00
22550;BME280;11441;57.164;-2.120;2022-12-20T06:37:40;98863.97;;;5.80;100.00
22550;BME280;11441;57.164;-2.120;2022-12-20T06:40:08;98858.75;;;5.71;100.00
22550;BME280;11441;57.164;-2.120;2022-12-20T06:42:36;98868.31;;;5.84;100.00
22550;BME280;11441;57.164;-2.120;2022-12-20T06:45:05;98875.81;;;5.88;100.00
22550;BME280;11441;57.164;-2.120;2022-12-20T06:47:32;98872.00;;;5.69;100.00
22550;BME280;11441;57.164;-2.120;2022-12-20T06:50:00;98878.31;;;5.73;100.00
22550;BME280;11441;57.164;-2.120;2022-12-20T06:52:27;98878.25;;;5.70;100.00
22550;BME280;11441;57.164;-2.120;2022-12-20T06:54:54;98867.88;;;5.79;100.00
22550;BME280;11441;57.164;-2.120;2022-12-20T06:57:22;98870.50;;;5.72;100.00
22550;BME280;11441;57.164;-2.120;2022-12-20T06:59:50;98875.22;;;5.75;100.00
22550;BME280;11441;57.164;-2.120;2022-12-20T07:02:17;98872.84;;;5.73;100.00
22550;BME280;11441;57.164;-2.120;2022-12-20T07:04:44;98880.44;;;5.83;100.00
22550;BME280;11441;57.164;-2.120;2022-12-20T07:07:12;98877.16;;;5.74;100.00
22550;BME280;11441;57.164;-2.120;2022-12-20T07:09:39;98879.63;;;5.83;100.00
22550;BME280;11441;57.164;-2.120;2022-12-20T07:12:08;98873.31;;;5.79;100.00
22550;BME280;11441;57.164;-2.120;2022-12-20T07:14:35;98877.63;;;5.80;100.00
22550;BME280;11441;57.164;-2.120;2022-12-20T07:17:03;98881.09;;;5.77;100.00
22550;BME280;11441;57.164;-2.120;2022-12-20T07:19:49;98867.41;;;5.73;100.00
22550;BME280;11441;57.164;-2.120;2022-12-20T07:22:16;98877.34;;;5.62;100.00
22550;BME280;11441;57.164;-2.120;2022-12-20T07:24:44;98864.56;;;5.66;100.00
22550;BME280;11441;57.164;-2.120;2022-12-20T07:27:11;98879.03;;;5.70;100.00
22550;BME280;11441;57.164;-2.120;2022-12-20T07:29:38;98878.63;;;5.68;100.00
22550;BME280;11441;57.164;-2.120;2022-12-20T07:32:07;98879.97;;;5.55;100.00
22550;BME280;11441;57.164;-2.120;2022-12-20T07:34:36;98875.69;;;5.57;100.00
22550;BME280;11441;57.164;-2.120;2022-12-20T07:37:03;98880.81;;;5.59;100.00
22550;BME280;11441;57.164;-2.120;2022-12-20T07:39:30;98875.91;;;5.68;100.00
22550;BME280;11441;57.164;-2.120;2022-12-20T07:41:56;98875.03;;;5.64;100.00
22550;BME280;11441;57.164;-2.120;2022-12-20T07:44:23;98877.81;;;5.67;100.00
22550;BME280;11441;57.164;-2.120;2022-12-20T07:46:50;98869.16;;;5.62;100.00
22550;BME280;11441;57.164;-2.120;2022-12-20T07:49:17;98864.00;;;5.57;100.00
22550;BME280;11441;57.164;-2.120;2022-12-20T07:51:56;98862.19;;;5.64;100.00
22550;BME280;11441;57.164;-2.120;2022-12-20T07:54:30;98860.53;;;5.60;100.00
22550;BME280;11441;57.164;-2.120;2022-12-20T07:57:04;98868.44;;;5.65;100.00
22550;BME280;11441;57.164;-2.120;2022-12-20T07:59:42;98858.69;;;5.67;100.00
22550;BME280;11441;57.164;-2.120;2022-12-20T08:03:00;98867.91;;;5.56;100.00
22550;BME280;11441;57.164;-2.120;2022-12-20T08:05:31;98865.69;;;5.65;100.00
22550;BME280;11441;57.164;-2.120;2022-12-20T08:08:00;98860.53;;;5.60;100.00
22550;BME280;11441;57.164;-2.120;2022-12-20T08:10:28;98855.81;;;5.57;100.00
22550;BME280;11441;57.164;-2.120;2022-12-20T08:12:56;98860.53;;;5.60;100.00
22550;BME280;11441;57.164;-2.120;2022-12-20T08:15:24;98860.44;;;5.53;100.00
22550;BME280;11441;57.164;-2.120;2022-12-20T08:17:51;98841.56;;;5.44;100.00
22550;BME280;11441;57.164;-2.120;2022-12-20T08:20:18;98860.84;;;5.55;100.00
22550;BME280;11441;57.164;-2.120;2022-12-20T08:23:04;98860.66;;;5.67;100.00
22550;BME280;11441;57.164;-2.120;2022-12-20T08:25:33;98862.97;;;5.65;100.00
22550;BME280;11441;57.164;-2.120;2022-12-20T08:28:07;98868.06;;;5.66;100.00
22550;BME280;11441;57.164;-2.120;2022-12-20T08:30:33;98872.66;;;5.62;100.00
22550;BME280;11441;57.164;-2.120;2022-12-20T08:33:19;98881.84;;;5.74;100.00
22550;BME280;11441;57.164;-2.120;2022-12-20T08:35:46;98868.53;;;5.72;100.00
22550;BME280;11441;57.164;-2.120;2022-12-20T08:38:13;98861.81;;;5.66;100.00
22550;BME280;11441;57.164;-2.120;2022-12-20T08:40:40;98874.63;;;5.62;100.00
22550;BME280;11441;57.164;-2.120;2022-12-20T08:43:06;98880.69;;;5.75;100.00
22550;BME280;11441;57.164;-2.120;2022-12-20T08:45:36;98864.66;;;5.73;100.00
22550;BME280;11441;57.164;-2.120;2022-12-20T08:48:02;98874.53;;;5.81;100.00
22550;BME280;11441;57.164;-2.120;2022-12-20T08:50:29;98877.34;;;5.89;100.00
22550;BME280;11441;57.164;-2.120;2022-12-20T08:53:15;98883.53;;;5.82;100.00
22550;BME280;11441;57.164;-2.120;2022-12-20T08:55:42;98887.72;;;5.76;100.00
22550;BME280;11441;57.164;-2.120;2022-12-20T08:58:09;98874.78;;;5.73;100.00
22550;BME280;11441;57.164;-2.120;2022-12-20T09:00:36;98888.06;;;5.74;100.00
22550;BME280;11441;57.164;-2.120;2022-12-20T09:03:21;98879.03;;;5.70;100.00
22550;BME280;11441;57.164;-2.120;2022-12-20T09:06:12;98895.84;;;5.72;100.00
22550;BME280;11441;57.164;-2.120;2022-12-20T09:08:40;98892.69;;;5.70;100.00
22550;BME280;11441;57.164;-2.120;2022-12-20T09:13:35;98890.50;;;5.79;100.00
22550;BME280;11441;57.164;-2.120;2022-12-20T09:16:11;98896.31;;;5.78;100.00
22550;BME280;11441;57.164;-2.120;2022-12-20T09:18:38;98892.09;;;5.80;100.00
22550;BME280;11441;57.164;-2.120;2022-12-20T09:21:06;98900.69;;;5.82;100.00
22550;BME280;11441;57.164;-2.120;2022-12-20T09:23:35;98894.22;;;5.67;100.00
22550;BME280;11441;57.164;-2.120;2022-12-20T09:26:04;98894.75;;;5.77;100.00
22550;BME280;11441;57.164;-2.120;2022-12-20T09:28:32;98894.00;;;5.80;100.00
22550;BME280;11441;57.164;-2.120;2022-12-20T09:31:03;98888.13;;;5.78;100.00
22550;BME280;11441;57.164;-2.120;2022-12-20T09:33:32;98886.16;;;5.75;100.00
22550;BME280;11441;57.164;-2.120;2022-12-20T09:36:00;98880.53;;;5.91;100.00
22550;BME280;11441;57.164;-2.120;2022-12-20T09:38:28;98885.25;;;5.94;100.00
22550;BME280;11441;57.164;-2.120;2022-12-20T09:41:04;98888.25;;;5.85;100.00
22550;BME280;11441;57.164;-2.120;2022-12-20T09:43:52;98879.31;;;5.88;100.00
22550;BME280;11441;57.164;-2.120;2022-12-20T09:46:19;98886.91;;;5.98;100.00
22550;BME280;11441;57.164;-2.120;2022-12-20T09:48:48;98883.00;;;5.96;100.00
22550;BME280;11441;57.164;-2.120;2022-12-20T09:54:31;98892.47;;;6.06;100.00
22550;BME280;11441;57.164;-2.120;2022-12-20T09:57:09;98900.09;;;6.19;100.00
22550;BME280;11441;57.164;-2.120;2022-12-20T09:59:41;98905.94;;;6.18;100.00
22550;BME280;11441;57.164;-2.120;2022-12-20T10:02:34;98905.88;;;6.14;100.00
22550;BME280;11441;57.164;-2.120;2022-12-20T10:05:35;98913.75;;;6.19;100.00
22550;BME280;11441;57.164;-2.120;2022-12-20T10:08:16;98905.28;;;6.28;100.00
22550;BME280;11441;57.164;-2.120;2022-12-20T10:10:56;98922.47;;;6.29;100.00
22550;BME280;11441;57.164;-2.120;2022-12-20T10:13:52;98922.56;;;6.32;100.00
22550;BME280;11441;57.164;-2.120;2022-12-20T10:16:46;98927.03;;;6.17;100.00
22550;BME280;11441;57.164;-2.120;2022-12-20T10:19:49;98912.03;;;6.34;100.00
22550;BME280;11441;57.164;-2.120;2022-12-20T10:22:49;98914.50;;;6.43;100.00
22550;BME280;11441;57.164;-2.120;2022-12-20T10:25:20;98903.06;;;6.37;100.00
22550;BME280;11441;57.164;-2.120;2022-12-20T10:27:53;98886.16;;;6.28;100.00
22550;BME280;11441;57.164;-2.120;2022-12-20T10:30:24;98903.47;;;6.36;100.00
22550;BME280;11441;57.164;-2.120;2022-12-20T10:33:35;98892.94;;;6.38;100.00
22550;BME280;11441;57.164;-2.120;2022-12-20T10:36:21;98899.50;;;6.33;100.00
22550;BME280;11441;57.164;-2.120;2022-12-20T10:38:52;98892.09;;;6.34;100.00
22550;BME280;11441;57.164;-2.120;2022-12-20T10:41:23;98905.38;;;6.35;100.00
22550;BME280;11441;57.164;-2.120;2022-12-20T10:46:43;98899.69;;;6.48;100.00
22550;BME280;11441;57.164;-2.120;2022-12-20T10:52:15;98913.50;;;6.28;100.00
22550;BME280;11441;57.164;-2.120;2022-12-20T10:54:45;98906.94;;;6.33;100.00
22550;BME280;11441;57.164;-2.120;2022-12-20T10:57:26;98907.34;;;6.35;100.00
22550;BME280;11441;57.164;-2.120;2022-12-20T11:00:27;98914.19;;;6.48;100.00
22550;BME280;11441;57.164;-2.120;2022-12-20T11:03:17;98915.66;;;6.42;100.00
22550;BME280;11441;57.164;-2.120;2022-12-20T11:06:00;98916.50;;;6.46;100.00
22550;BME280;11441;57.164;-2.120;2022-12-20T11:08:31;98921.63;;;6.51;100.00
22550;BME280;11441;57.164;-2.120;2022-12-20T11:11:19;98920.94;;;6.58;100.00
22550;BME280;11441;57.164;-2.120;2022-12-20T11:14:14;98936.97;;;6.59;100.00
22550;BME280;11441;57.164;-2.120;2022-12-20T11:16:44;98927.94;;;6.55;100.00
22550;BME280;11441;57.164;-2.120;2022-12-20T11:34:21;98908.34;;;6.50;100.00
22550;BME280;11441;57.164;-2.120;2022-12-20T11:37:22;98914.34;;;6.63;100.00
22550;BME280;11441;57.164;-2.120;2022-12-20T11:39:57;98916.53;;;6.50;100.00
22550;BME280;11441;57.164;-2.120;2022-12-20T11:45:29;98913.75;;;6.46;100.00
22550;BME280;11441;57.164;-2.120;2022-12-20T11:51:01;98918.00;;;6.74;100.00
22550;BME280;11441;57.164;-2.120;2022-12-20T11:56:10;98915.94;;;6.64;100.00
22550;BME280;11441;57.164;-2.120;2022-12-20T11:58:51;98911.25;;;6.64;100.00
22550;BME280;11441;57.164;-2.120;2022-12-20T12:01:24;98935.81;;;6.60;100.00
22550;BME280;11441;57.164;-2.120;2022-12-20T12:10:08;98918.00;;;6.74;100.00
22550;BME280;11441;57.164;-2.120;2022-12-20T12:12:37;98915.31;;;6.77;100.00
22550;BME280;11441;57.164;-2.120;2022-12-20T12:15:29;98919.69;;;6.86;100.00
22550;BME280;11441;57.164;-2.120;2022-12-20T12:18:02;98903.72;;;6.91;100.00
22550;BME280;11441;57.164;-2.120;2022-12-20T12:26:11;98919.56;;;7.09;100.00
22550;BME280;11441;57.164;-2.120;2022-12-20T12:29:03;98921.22;;;7.17;100.00
22550;BME280;11441;57.164;-2.120;2022-12-20T12:31:53;98928.56;;;7.06;100.00
22550;BME280;11441;57.164;-2.120;2022-12-20T12:46:12;98908.03;;;7.26;100.00
22550;BME280;11441;57.164;-2.120;2022-12-20T12:49:10;98916.00;;;7.39;100.00
22550;BME280;11441;57.164;-2.120;2022-12-20T12:51:42;98906.06;;;7.23;100.00
22550;BME280;11441;57.164;-2.120;2022-12-20T12:55:33;98906.59;;;7.40;100.00
22550;BME280;11441;57.164;-2.120;2022-12-20T12:57:56;98890.44;;;7.27;100.00
22550;BME280;11441;57.164;-2.120;2022-12-20T13:01:08;98903.97;;;7.54;100.00
22550;BME280;11441;57.164;-2.120;2022-12-20T13:11:40;98905.19;;;7.57;100.00
22550;BME280;11441;57.164;-2.120;2022-12-20T13:19:54;98907.47;;;7.47;100.00
22550;BME280;11441;57.164;-2.120;2022-12-20T13:22:25;98899.69;;;7.53;100.00
22550;BME280;11441;57.164;-2.120;2022-12-20T13:27:39;98897.63;;;7.43;100.00
22550;BME280;11441;57.164;-2.120;2022-12-20T13:30:26;98892.22;;;7.53;100.00
22550;BME280;11441;57.164;-2.120;2022-12-20T13:32:56;98886.41;;;7.59;100.00
22550;BME280;11441;57.164;-2.120;2022-12-20T13:38:04;98883.47;;;7.33;100.00
22550;BME280;11441;57.164;-2.120;2022-12-20T13:43:26;98892.06;;;7.32;100.00
22550;BME280;11441;57.164;-2.120;2022-12-20T13:51:21;98894.38;;;7.30;100.00
22550;BME280;11441;57.164;-2.120;2022-12-20T13:54:00;98900.22;;;7.28;100.00
22550;BME280;11441;57.164;-2.120;2022-12-20T13:56:52;98911.16;;;7.25;100.00
22550;BME280;11441;57.164;-2.120;2022-12-20T13:59:29;98893.97;;;7.31;100.00
22550;BME280;11441;57.164;-2.120;2022-12-20T14:02:34;98904.81;;;7.17;100.00
22550;BME280;11441;57.164;-2.120;2022-12-20T14:05:16;98895.88;;;7.24;100.00
22550;BME280;11441;57.164;-2.120;2022-12-20T14:07:47;98893.78;;;7.10;100.00
22550;BME280;11441;57.164;-2.120;2022-12-20T14:10:36;98885.13;;;7.04;100.00
22550;BME280;11441;57.164;-2.120;2022-12-20T14:13:21;98907.81;;;7.05;100.00
22550;BME280;11441;57.164;-2.120;2022-12-20T14:15:49;98908.84;;;6.93;100.00
22550;BME280;11441;57.164;-2.120;2022-12-20T14:20:54;98905.06;;;7.05;100.00
22550;BME280;11441;57.164;-2.120;2022-12-20T14:23:44;98906.69;;;6.75;100.00
22550;BME280;11441;57.164;-2.120;2022-12-20T14:26:31;98893.56;;;6.88;100.00
22550;BME280;11441;57.164;-2.120;2022-12-20T14:29:00;98901.34;;;6.86;100.00
22550;BME280;11441;57.164;-2.120;2022-12-20T14:31:46;98904.09;;;6.86;100.00
22550;BME280;11441;57.164;-2.120;2022-12-20T14:34:35;98896.63;;;6.83;100.00
22550;BME280;11441;57.164;-2.120;2022-12-20T14:42:37;98905.84;;;6.71;100.00
22550;BME280;11441;57.164;-2.120;2022-12-20T14:48:11;98920.22;;;6.65;100.00
22550;BME280;11441;57.164;-2.120;2022-12-20T14:50:37;98917.81;;;6.59;100.00
22550;BME280;11441;57.164;-2.120;2022-12-20T14:53:22;98937.19;;;6.47;100.00
22550;BME280;11441;57.164;-2.120;2022-12-20T14:55:51;98929.63;;;6.37;100.00
22550;BME280;11441;57.164;-2.120;2022-12-20T14:58:44;98935.56;;;6.42;100.00
22550;BME280;11441;57.164;-2.120;2022-12-20T15:03:52;98936.69;;;6.38;100.00
22550;BME280;11441;57.164;-2.120;2022-12-20T15:06:40;98941.25;;;6.30;100.00
22550;BME280;11441;57.164;-2.120;2022-12-20T15:09:08;98937.41;;;6.35;100.00
22550;BME280;11441;57.164;-2.120;2022-12-20T15:11:36;98933.00;;;6.27;100.00
22550;BME280;11441;57.164;-2.120;2022-12-20T15:14:34;98924.84;;;6.30;100.00
22550;BME280;11441;57.164;-2.120;2022-12-20T15:17:08;98908.06;;;6.32;100.00
22550;BME280;11441;57.164;-2.120;2022-12-20T15:19:35;98915.44;;;6.28;100.00
22550;BME280;11441;57.164;-2.120;2022-12-20T15:22:13;98900.97;;;6.23;100.00